Time;durP1;ratioP1;P1;durP2;ratioP2;P2;SDS_P1;SDS_P2;PMS_P1;PMS_P2;Temp;Humidity;BMP_temperature;BMP_pressure;BME280_temperature;BME280_humidity;BME280_pressure;Samples;Min_cycle;Max_cycle;Signal;HPM_P1;HPM_P2
2023/03/16 00:01:05;;;;;;;1.97;1.60;;;3.50;99.90;;;;;;5072219;28;20558;-48
2023/03/16 00:03:33;;;;;;;1.60;1.30;;;3.30;99.90;;;;;;5072446;28;20479;-48
2023/03/16 00:06:00;;;;;;;1.30;1.00;;;3.30;99.90;;;;;;5071925;28;20471;-49
2023/03/16 00:08:27;;;;;;;2.60;1.40;;;3.40;99.90;;;;;;5071705;28;20473;-49
2023/03/16 00:10:54;;;;;;;2.53;1.50;;;3.70;99.90;;;;;;5069969;28;20490;-49
2023/03/16 00:13:23;;;;;;;1.80;1.27;;;3.60;99.90;;;;;;5072025;28;20480;-49
2023/03/16 00:15:51;;;;;;;2.17;1.40;;;3.70;99.90;;;;;;5071869;28;20574;-49
2023/03/16 00:18:20;;;;;;;1.60;1.30;;;3.80;99.90;;;;;;5071961;28;20512;-50
2023/03/16 00:20:51;;;;;;;3.20;1.10;;;3.80;99.90;;;;;;5071351;28;20554;-48
2023/03/16 00:23:26;;;;;;;1.40;1.23;;;3.80;99.90;;;;;;5071715;28;20442;-48
2023/03/16 00:25:54;;;;;;;1.83;1.30;;;3.10;99.90;;;;;;5071877;28;20456;-48
2023/03/16 00:28:21;;;;;;;2.77;1.43;;;2.70;99.90;;;;;;5071880;28;20457;-50
2023/03/16 00:30:47;;;;;;;1.50;1.40;;;2.80;99.90;;;;;;5071135;28;21021;-50
2023/03/16 00:33:15;;;;;;;4.70;3.23;;;3.00;99.90;;;;;;5071336;28;20475;-49
2023/03/16 00:35:48;;;;;;;2.30;1.90;;;3.30;99.90;;;;;;5071893;28;20766;-48
2023/03/16 00:38:16;;;;;;;2.17;1.20;;;3.50;99.90;;;;;;5071454;28;21036;-46
2023/03/16 00:40:42;;;;;;;2.13;1.10;;;3.60;99.90;;;;;;5071422;28;20493;-49
2023/03/16 00:43:09;;;;;;;1.80;1.33;;;3.60;99.90;;;;;;5070872;28;20829;-49
2023/03/16 00:45:36;;;;;;;1.73;1.63;;;3.70;99.90;;;;;;5071385;28;20470;-49
2023/03/16 00:48:03;;;;;;;2.47;1.33;;;3.60;99.90;;;;;;5071222;28;20442;-49
2023/03/16 00:50:30;;;;;;;1.73;1.60;;;3.60;99.90;;;;;;5071608;28;20505;-49
2023/03/16 00:52:59;;;;;;;2.53;1.50;;;3.30;99.90;;;;;;5070393;28;20478;-48
2023/03/16 00:55:27;;;;;;;1.40;1.10;;;3.40;99.90;;;;;;5071107;28;20478;-49
2023/03/16 00:57:54;;;;;;;1.50;1.30;;;3.00;99.90;;;;;;5071354;28;20483;-48
2023/03/16 01:00:24;;;;;;;1.70;1.27;;;2.90;99.90;;;;;;5070783;28;20991;-49
2023/03/16 01:02:51;;;;;;;1.40;1.03;;;3.30;99.90;;;;;;5070873;28;20443;-50
2023/03/16 01:05:18;;;;;;;1.80;1.33;;;3.50;99.90;;;;;;5071646;28;20522;-49
2023/03/16 01:07:45;;;;;;;2.30;1.53;;;3.50;99.90;;;;;;5071289;28;21036;-48
2023/03/16 01:10:13;;;;;;;1.30;1.20;;;3.60;99.90;;;;;;5069764;28;20520;-49
2023/03/16 01:12:40;;;;;;;1.60;1.50;;;3.60;99.90;;;;;;5070746;28;20534;-49
2023/03/16 01:15:09;;;;;;;1.93;1.70;;;3.70;99.90;;;;;;5071356;28;20470;-49
2023/03/16 01:17:36;;;;;;;1.33;1.00;;;3.70;99.90;;;;;;5071222;28;20511;-49
2023/03/16 01:20:06;;;;;;;1.53;1.40;;;3.60;99.90;;;;;;5071023;28;20473;-49
2023/03/16 01:22:33;;;;;;;2.13;1.40;;;3.50;99.90;;;;;;5070416;28;20448;-50
2023/03/16 01:25:00;;;;;;;1.40;1.20;;;3.50;99.90;;;;;;5071054;28;20960;-49
2023/03/16 01:27:29;;;;;;;2.40;1.70;;;3.20;99.90;;;;;;5071024;28;20500;-49
2023/03/16 01:29:55;;;;;;;2.53;2.33;;;3.00;99.90;;;;;;5071291;28;20524;-48
2023/03/16 01:32:22;;;;;;;2.13;1.23;;;2.80;99.90;;;;;;5070805;28;20971;-50
2023/03/16 01:34:49;;;;;;;2.23;1.17;;;3.10;99.90;;;;;;5071113;28;20475;-48
2023/03/16 01:37:16;;;;;;;2.27;1.20;;;3.20;99.90;;;;;;5070560;28;20470;-49
2023/03/16 01:39:43;;;;;;;1.40;1.20;;;3.20;99.90;;;;;;5070513;28;20483;-49
2023/03/16 01:42:10;;;;;;;1.70;1.30;;;3.10;99.90;;;;;;5062916;28;20464;-48
2023/03/16 01:44:54;;;;;;;1.40;1.20;;;3.00;99.90;;;;;;5070314;28;20451;-48
2023/03/16 01:47:22;;;;;;;1.30;1.20;;;3.00;99.90;;;;;;5068887;28;20481;-49
2023/03/16 01:49:53;;;;;;;1.77;1.30;;;2.60;99.90;;;;;;5068735;28;20817;-49
2023/03/16 01:52:24;;;;;;;2.07;1.13;;;2.50;99.90;;;;;;5069153;28;20524;-49
2023/03/16 01:54:55;;;;;;;1.57;1.00;;;2.40;99.90;;;;;;5051187;28;20558;-49
2023/03/16 01:57:23;;;;;;;1.70;1.13;;;2.40;99.90;;;;;;5066458;28;20510;-49
2023/03/16 01:59:54;;;;;;;3.07;0.93;;;2.80;99.90;;;;;;5069196;28;20524;-48
2023/03/16 02:02:25;;;;;;;1.47;1.30;;;2.90;99.90;;;;;;5070047;28;20450;-50
2023/03/16 02:04:58;;;;;;;1.30;0.97;;;3.00;99.90;;;;;;5070772;28;20482;-51
2023/03/16 02:07:27;;;;;;;1.30;0.90;;;3.00;99.90;;;;;;5070458;28;20483;-50
2023/03/16 02:09:58;;;;;;;1.60;1.30;;;3.10;99.90;;;;;;5070743;28;20479;-49
2023/03/16 02:12:25;;;;;;;1.47;1.00;;;3.20;99.90;;;;;;5069544;28;20486;-49
2023/03/16 02:14:53;;;;;;;3.77;2.50;;;3.20;99.90;;;;;;5070350;28;20525;-49
2023/03/16 02:17:23;;;;;;;1.43;1.17;;;2.90;99.90;;;;;;5070495;28;20504;-48
2023/03/16 02:19:59;;;;;;;1.67;1.23;;;2.90;99.90;;;;;;5068825;28;20455;-48
2023/03/16 02:22:27;;;;;;;1.20;1.00;;;2.80;99.90;;;;;;5064572;28;21064;-48
2023/03/16 02:24:54;;;;;;;1.30;1.00;;;2.90;99.90;;;;;;5073208;28;20478;-48
2023/03/16 02:27:27;;;;;;;1.50;1.23;;;3.00;99.90;;;;;;5074233;28;20473;-49
2023/03/16 02:30:06;;;;;;;3.10;1.63;;;3.00;99.90;;;;;;5074060;28;20971;-49
2023/03/16 02:32:33;;;;;;;2.30;1.37;;;2.90;99.90;;;;;;5074136;28;20997;-49
2023/03/16 02:35:01;;;;;;;1.60;1.17;;;2.80;99.90;;;;;;5072961;28;20544;-51
2023/03/16 02:37:28;;;;;;;1.70;1.20;;;2.80;99.90;;;;;;5073150;28;20501;-48
2023/03/16 02:39:55;;;;;;;2.23;1.10;;;2.90;99.90;;;;;;5073534;28;20533;-48
2023/03/16 02:42:25;;;;;;;1.97;1.20;;;2.70;99.90;;;;;;5073864;28;20446;-49
2023/03/16 02:44:57;;;;;;;1.27;1.00;;;2.80;99.90;;;;;;5073930;28;20447;-50
2023/03/16 02:47:33;;;;;;;1.60;0.83;;;2.70;99.90;;;;;;5064866;28;20529;-49
2023/03/16 02:50:01;;;;;;;1.30;1.00;;;2.70;99.90;;;;;;5073917;28;20552;-50
2023/03/16 02:52:28;;;;;;;1.20;0.93;;;2.70;99.90;;;;;;5073385;28;20445;-51
2023/03/16 02:54:55;;;;;;;2.50;0.80;;;2.70;99.90;;;;;;5073436;28;20472;-49
2023/03/16 02:57:22;;;;;;;1.33;0.93;;;2.70;99.90;;;;;;5073449;28;20568;-48
2023/03/16 02:59:48;;;;;;;2.20;1.13;;;2.60;99.90;;;;;;5073700;28;20470;-51
2023/03/16 03:02:15;;;;;;;1.10;0.80;;;2.60;99.90;;;;;;5073179;28;20520;-49
2023/03/16 03:04:45;;;;;;;1.10;0.93;;;2.50;99.90;;;;;;5073626;28;20534;-48
2023/03/16 03:07:13;;;;;;;1.00;0.70;;;2.40;99.90;;;;;;5072803;28;20524;-48
2023/03/16 03:09:41;;;;;;;2.43;0.90;;;2.20;99.90;;;;;;5073329;28;20529;-49
2023/03/16 03:12:08;;;;;;;1.63;0.83;;;2.00;99.90;;;;;;5073019;28;20442;-48
2023/03/16 03:14:36;;;;;;;1.40;0.87;;;2.10;99.90;;;;;;5073006;28;20818;-49
2023/03/16 03:17:04;;;;;;;1.30;0.87;;;2.30;99.90;;;;;;5073093;28;20482;-49
2023/03/16 03:19:32;;;;;;;1.53;0.80;;;2.50;99.90;;;;;;5073247;28;20465;-48
2023/03/16 03:22:03;;;;;;;1.10;0.80;;;2.50;99.90;;;;;;5113652;22;20527;-49
2023/03/16 03:24:30;;;;;;;1.57;0.73;;;2.40;99.90;;;;;;5051093;28;21045;-50
2023/03/16 03:26:57;;;;;;;1.60;0.90;;;2.40;99.90;;;;;;5052712;28;20452;-49
2023/03/16 03:29:24;;;;;;;1.07;0.83;;;2.30;99.90;;;;;;5053081;28;20877;-50
2023/03/16 03:31:51;;;;;;;1.40;1.10;;;2.20;99.90;;;;;;5052692;28;21013;-49
2023/03/16 03:34:18;;;;;;;1.00;0.80;;;2.30;99.90;;;;;;5052259;28;20527;-51
2023/03/16 03:36:45;;;;;;;1.00;0.80;;;2.40;99.90;;;;;;5052592;28;20550;-50
2023/03/16 03:39:13;;;;;;;1.73;1.03;;;2.20;99.90;;;;;;5052126;28;20709;-49
2023/03/16 03:41:40;;;;;;;1.10;0.87;;;2.20;99.90;;;;;;5052551;28;20494;-49
2023/03/16 03:44:07;;;;;;;1.30;1.00;;;2.20;99.90;;;;;;5052714;28;20832;-50
2023/03/16 03:46:34;;;;;;;1.97;1.03;;;2.40;99.90;;;;;;5052029;28;20447;-49
2023/03/16 03:49:04;;;;;;;2.93;1.03;;;2.40;99.90;;;;;;5052102;28;20964;-51
2023/03/16 03:51:30;;;;;;;1.10;0.70;;;2.40;99.90;;;;;;5032311;28;20497;-49
2023/03/16 03:53:58;;;;;;;1.47;1.00;;;2.40;99.90;;;;;;5036777;28;20448;-49
2023/03/16 03:56:26;;;;;;;1.23;0.83;;;2.40;99.90;;;;;;5052233;28;20505;-48
2023/03/16 03:58:53;;;;;;;1.47;0.90;;;2.50;99.90;;;;;;5052151;28;20990;-50
2023/03/16 04:01:21;;;;;;;1.20;0.80;;;2.60;99.90;;;;;;5051813;28;21061;-49
2023/03/16 04:03:47;;;;;;;1.20;0.70;;;2.60;99.90;;;;;;5052726;28;20486;-50
2023/03/16 04:06:14;;;;;;;1.23;0.83;;;2.60;99.90;;;;;;5052298;28;20470;-49
2023/03/16 04:08:41;;;;;;;0.93;0.80;;;2.60;99.90;;;;;;5052037;28;20613;-49
2023/03/16 04:11:08;;;;;;;1.37;0.90;;;2.60;99.90;;;;;;5051616;28;20913;-49
2023/03/16 04:13:36;;;;;;;1.17;1.00;;;2.50;99.90;;;;;;5052031;28;20525;-49
2023/03/16 04:16:04;;;;;;;1.07;0.90;;;2.50;99.90;;;;;;5052118;28;20992;-49
2023/03/16 04:18:37;;;;;;;1.30;1.00;;;2.30;99.90;;;;;;5051901;28;20477;-50
2023/03/16 04:21:05;;;;;;;1.43;0.93;;;2.20;99.90;;;;;;5050956;28;20475;-50
2023/03/16 04:23:33;;;;;;;1.30;0.90;;;2.30;99.90;;;;;;5051621;28;20446;-51
2023/03/16 04:26:01;;;;;;;1.90;1.10;;;2.40;99.90;;;;;;5051744;28;20538;-49
2023/03/16 04:28:28;;;;;;;2.50;0.80;;;2.40;99.90;;;;;;5051927;28;20463;-49
2023/03/16 04:31:01;;;;;;;1.27;0.90;;;2.40;99.90;;;;;;5051295;28;20922;-50
2023/03/16 04:33:27;;;;;;;2.03;1.20;;;2.30;99.90;;;;;;5051585;28;20574;-49
2023/03/16 04:35:54;;;;;;;2.93;1.00;;;2.20;99.90;;;;;;5051635;28;20533;-48
2023/03/16 04:38:21;;;;;;;1.80;1.70;;;2.20;99.90;;;;;;5051080;28;20563;-49
2023/03/16 04:40:48;;;;;;;1.00;0.70;;;2.10;99.90;;;;;;5050705;28;20553;-49
2023/03/16 04:43:15;;;;;;;3.67;2.57;;;2.10;99.90;;;;;;5051170;28;20439;-49
2023/03/16 04:45:42;;;;;;;1.67;1.07;;;2.00;99.90;;;;;;5049961;28;20454;-49
2023/03/16 04:48:11;;;;;;;1.10;0.80;;;2.10;99.90;;;;;;5051466;28;20529;-49
2023/03/16 04:50:37;;;;;;;1.57;0.80;;;2.10;99.90;;;;;;5050816;28;20899;-50
2023/03/16 04:53:04;;;;;;;2.27;0.73;;;2.10;99.90;;;;;;5051511;28;21003;-49
2023/03/16 04:55:31;;;;;;;1.70;1.00;;;2.10;99.90;;;;;;5051307;28;20474;-49
2023/03/16 04:57:58;;;;;;;1.47;1.00;;;1.90;99.90;;;;;;5050926;28;20533;-50
2023/03/16 05:00:25;;;;;;;1.27;0.90;;;2.00;99.90;;;;;;5050716;28;20466;-49
2023/03/16 05:02:52;;;;;;;1.43;1.10;;;1.90;99.90;;;;;;5050775;28;20446;-50
2023/03/16 05:05:21;;;;;;;1.10;0.97;;;1.80;99.90;;;;;;5041148;28;20529;-49
2023/03/16 05:07:48;;;;;;;1.90;1.03;;;1.80;99.90;;;;;;5051727;28;20448;-49
2023/03/16 05:10:18;;;;;;;1.10;0.73;;;2.00;99.90;;;;;;5050114;28;20511;-49
2023/03/16 05:12:45;;;;;;;1.33;0.90;;;2.10;99.90;;;;;;5049972;28;20957;-51
2023/03/16 05:15:12;;;;;;;1.57;0.80;;;1.90;99.90;;;;;;5051208;28;20479;-48
2023/03/16 05:17:40;;;;;;;1.80;0.87;;;1.90;99.90;;;;;;5050398;28;20509;-51
2023/03/16 05:20:11;;;;;;;1.20;1.10;;;1.80;99.90;;;;;;5050835;28;20495;-50
2023/03/16 05:22:40;;;;;;;1.17;0.80;;;1.80;99.90;;;;;;5050856;28;20508;-49
2023/03/16 05:25:08;;;;;;;1.70;0.80;;;1.80;99.90;;;;;;5050399;28;20555;-51
2023/03/16 05:27:35;;;;;;;1.40;0.97;;;1.90;99.90;;;;;;5048875;28;20526;-49
2023/03/16 05:30:02;;;;;;;1.87;0.80;;;1.80;99.90;;;;;;5050198;28;20469;-49
2023/03/16 05:32:29;;;;;;;1.40;1.00;;;1.80;99.90;;;;;;5050774;28;20493;-49
2023/03/16 05:34:57;;;;;;;1.40;1.10;;;1.70;99.90;;;;;;5050550;28;20468;-51
2023/03/16 05:37:24;;;;;;;2.37;1.13;;;1.60;99.90;;;;;;5050197;28;20876;-50
2023/03/16 05:39:52;;;;;;;2.03;1.37;;;1.60;99.90;;;;;;5047659;28;20521;-50
2023/03/16 05:42:19;;;;;;;2.13;1.90;;;1.70;99.90;;;;;;5048404;28;20493;-49
2023/03/16 05:44:46;;;;;;;6.77;5.40;;;1.70;99.90;;;;;;5054952;28;20755;-50
2023/03/16 05:47:13;;;;;;;7.70;6.83;;;1.70;99.90;;;;;;5049682;28;20474;-49
2023/03/16 05:49:40;;;;;;;2.50;2.27;;;1.60;99.90;;;;;;5049989;28;20446;-49
2023/03/16 05:52:07;;;;;;;1.30;1.10;;;1.60;99.90;;;;;;5049757;28;20562;-49
2023/03/16 05:54:34;;;;;;;1.93;0.97;;;1.70;99.90;;;;;;5049166;28;20525;-49
2023/03/16 05:57:02;;;;;;;3.70;1.03;;;1.90;99.90;;;;;;5051981;28;20474;-51
2023/03/16 05:59:29;;;;;;;1.50;1.00;;;2.00;99.90;;;;;;5052998;28;20513;-50
2023/03/16 06:01:56;;;;;;;1.57;0.73;;;2.00;99.90;;;;;;5052662;28;21048;-49
2023/03/16 06:04:23;;;;;;;2.63;1.00;;;2.10;99.90;;;;;;5052460;28;20538;-51
2023/03/16 06:06:50;;;;;;;2.03;1.30;;;2.00;99.90;;;;;;5048617;28;20553;-49
2023/03/16 06:09:17;;;;;;;2.40;1.23;;;1.90;99.90;;;;;;5053599;28;20520;-49
2023/03/16 06:11:43;;;;;;;1.93;1.23;;;2.00;99.90;;;;;;5052450;28;20565;-50
2023/03/16 06:14:12;;;;;;;1.57;1.20;;;2.00;99.90;;;;;;5049526;28;20536;-51
2023/03/16 06:16:39;;;;;;;1.50;1.20;;;2.00;99.90;;;;;;5052464;28;20515;-49
2023/03/16 06:19:05;;;;;;;5.33;1.80;;;1.90;99.90;;;;;;5050960;28;20594;-50
2023/03/16 06:21:32;;;;;;;2.47;1.53;;;1.90;99.90;;;;;;5052113;28;21093;-51
2023/03/16 06:24:00;;;;;;;317.63;285.07;;;1.90;99.90;;;;;;5047872;28;20522;-49
2023/03/16 06:26:27;;;;;;;15.63;12.00;;;2.00;99.90;;;;;;5048696;28;20450;-49
2023/03/16 06:28:54;;;;;;;2.93;2.73;;;1.90;99.90;;;;;;5051957;28;20524;-49
2023/03/16 06:31:22;;;;;;;4.87;2.10;;;1.90;99.90;;;;;;5053025;28;20461;-50
2023/03/16 06:33:49;;;;;;;2.07;1.43;;;2.10;99.90;;;;;;5053329;28;20943;-49
2023/03/16 06:36:16;;;;;;;3.80;2.17;;;2.30;99.90;;;;;;5052753;28;20516;-48
2023/03/16 06:38:43;;;;;;;2.00;1.60;;;2.30;99.90;;;;;;5052581;28;20513;-49
2023/03/16 06:41:10;;;;;;;2.40;2.20;;;2.10;99.90;;;;;;5053155;28;20523;-50
2023/03/16 06:43:37;;;;;;;3.20;2.27;;;1.60;99.90;;;;;;5053353;28;20886;-49
2023/03/16 06:46:04;;;;;;;1.93;1.60;;;1.10;99.90;;;;;;5043761;28;20565;-49
2023/03/16 06:48:32;;;;;;;2.30;1.53;;;1.00;99.90;;;;;;5032665;28;20486;-50
2023/03/16 06:51:00;;;;;;;1.97;1.50;;;1.10;99.90;;;;;;5037095;28;20987;-49
2023/03/16 06:53:27;;;;;;;2.57;2.07;;;1.50;99.90;;;;;;5052910;28;20451;-50
2023/03/16 06:55:54;;;;;;;2.17;1.70;;;1.80;99.90;;;;;;5053214;28;20542;-50
2023/03/16 06:58:21;;;;;;;2.47;1.50;;;2.20;99.90;;;;;;5050399;28;20522;-49
2023/03/16 07:00:47;;;;;;;2.53;1.70;;;2.30;99.90;;;;;;5052409;28;20472;-51
2023/03/16 07:03:16;;;;;;;3.37;1.90;;;2.40;99.90;;;;;;5041131;28;20530;-49
2023/03/16 07:05:44;;;;;;;4.43;2.77;;;2.40;99.90;;;;;;5033939;28;20534;-49
2023/03/16 07:08:11;;;;;;;5.47;3.60;;;2.30;99.90;;;;;;5032191;28;20492;-48
2023/03/16 07:10:38;;;;;;;4.20;3.10;;;2.40;99.90;;;;;;5032900;28;20566;-49
2023/03/16 07:13:04;;;;;;;4.10;2.87;;;2.40;99.90;;;;;;5032282;28;20527;-49
2023/03/16 07:15:31;;;;;;;16.60;4.03;;;2.20;99.90;;;;;;5032738;28;20479;-49
2023/03/16 07:17:58;;;;;;;9.43;4.30;;;2.10;99.90;;;;;;5032670;28;20474;-50
2023/03/16 07:20:27;;;;;;;6.70;5.53;;;2.20;99.90;;;;;;5032558;28;20542;-49
2023/03/16 07:22:55;;;;;;;6.53;5.83;;;2.30;99.90;;;;;;5032079;28;20816;-49
2023/03/16 07:25:22;;;;;;;5.90;5.00;;;2.40;99.90;;;;;;5047185;28;20520;-51
2023/03/16 07:27:49;;;;;;;4.60;4.00;;;2.40;99.90;;;;;;5052324;28;20484;-51
2023/03/16 07:30:16;;;;;;;5.93;4.40;;;2.20;99.90;;;;;;5052359;28;20487;-50
2023/03/16 07:32:43;;;;;;;8.60;4.80;;;2.20;99.90;;;;;;5052301;28;20479;-49
2023/03/16 07:35:11;;;;;;;15.20;4.63;;;1.90;99.90;;;;;;5052734;28;20777;-50
2023/03/16 07:37:38;;;;;;;5.47;4.30;;;1.80;99.90;;;;;;5052673;28;20443;-52
2023/03/16 07:40:08;;;;;;;4.20;3.50;;;1.80;99.90;;;;;;5052322;28;20519;-50
2023/03/16 07:42:35;;;;;;;5.13;3.90;;;1.80;99.90;;;;;;5052327;28;20941;-50
2023/03/16 07:45:02;;;;;;;3.03;2.73;;;1.70;99.90;;;;;;5052505;28;20454;-50
2023/03/16 07:47:29;;;;;;;2.87;2.30;;;2.10;99.90;;;;;;5052403;28;20465;-49
2023/03/16 07:49:56;;;;;;;4.27;3.27;;;2.00;99.90;;;;;;5052277;28;20507;-50
2023/03/16 07:52:23;;;;;;;5.10;3.87;;;1.60;99.90;;;;;;5052134;28;20503;-48
2023/03/16 07:54:50;;;;;;;5.20;4.80;;;1.90;99.90;;;;;;5051588;28;20454;-51
2023/03/16 07:57:19;;;;;;;3.87;3.17;;;2.00;99.90;;;;;;5052072;28;20482;-50
2023/03/16 07:59:46;;;;;;;3.13;2.43;;;1.50;99.90;;;;;;5051782;28;21010;-49
2023/03/16 08:02:14;;;;;;;2.77;2.00;;;1.50;99.90;;;;;;5051612;28;21112;-50
2023/03/16 08:04:42;;;;;;;2.93;1.83;;;1.70;99.90;;;;;;5052222;28;20879;-50
2023/03/16 08:07:09;;;;;;;4.83;2.97;;;2.00;99.90;;;;;;5052234;28;20733;-49
2023/03/16 08:09:36;;;;;;;7.00;3.13;;;2.20;99.90;;;;;;5051424;28;20478;-49
2023/03/16 08:12:04;;;;;;;2.60;2.40;;;2.00;99.90;;;;;;5051463;28;21101;-50
2023/03/16 08:14:34;;;;;;;4.60;2.30;;;2.00;99.90;;;;;;5051630;28;20456;-48
2023/03/16 08:17:01;;;;;;;2.40;2.20;;;2.00;99.90;;;;;;5051778;28;20460;-50
2023/03/16 08:19:28;;;;;;;2.97;2.47;;;2.00;99.90;;;;;;5051557;28;21073;-49
2023/03/16 08:21:55;;;;;;;3.13;2.30;;;2.00;99.90;;;;;;5051425;28;20549;-51
2023/03/16 08:24:22;;;;;;;2.43;1.90;;;2.40;99.90;;;;;;5051283;28;20474;-51
2023/03/16 08:26:49;;;;;;;2.10;1.50;;;2.30;99.90;;;;;;5051590;28;20480;-49
2023/03/16 08:29:17;;;;;;;2.53;1.90;;;2.20;99.90;;;;;;5050894;28;20968;-49
2023/03/16 08:31:45;;;;;;;2.87;1.90;;;2.40;99.90;;;;;;5051394;28;20461;-51
2023/03/16 08:34:12;;;;;;;2.80;2.40;;;2.60;99.90;;;;;;5051121;28;21003;-50
2023/03/16 08:36:42;;;;;;;4.47;1.90;;;2.70;99.90;;;;;;5049219;28;20467;-49
2023/03/16 08:39:09;;;;;;;2.13;1.10;;;2.60;99.90;;;;;;5051280;28;21004;-49
2023/03/16 08:41:39;;;;;;;2.23;1.37;;;2.70;99.90;;;;;;5051006;28;20549;-49
2023/03/16 08:44:06;;;;;;;3.00;1.77;;;2.80;99.90;;;;;;5051237;28;20642;-49
2023/03/16 08:46:34;;;;;;;2.00;1.57;;;2.90;99.90;;;;;;5051377;28;20537;-47
2023/03/16 08:49:02;;;;;;;1.60;1.30;;;2.80;99.90;;;;;;5051322;28;20631;-50
2023/03/16 08:51:29;;;;;;;2.37;1.63;;;2.90;99.90;;;;;;5050926;28;20556;-51
2023/03/16 08:53:57;;;;;;;2.53;1.10;;;3.30;99.90;;;;;;5051525;28;20452;-49
2023/03/16 08:56:24;;;;;;;1.57;1.10;;;3.30;99.90;;;;;;5051125;28;20551;-49
2023/03/16 08:58:52;;;;;;;1.60;1.23;;;3.40;99.90;;;;;;5050773;28;20675;-50
2023/03/16 09:01:19;;;;;;;1.07;0.90;;;3.50;99.90;;;;;;5048241;28;21048;-49
2023/03/16 09:03:46;;;;;;;2.93;1.60;;;3.40;99.90;;;;;;5050950;28;20447;-49
2023/03/16 09:06:18;;;;;;;1.40;1.20;;;3.40;99.90;;;;;;5051119;28;20534;-49
2023/03/16 09:08:46;;;;;;;3.27;1.37;;;3.50;99.90;;;;;;5050931;28;21008;-49
2023/03/16 09:11:14;;;;;;;1.27;0.90;;;3.40;99.90;;;;;;5050787;28;20540;-49
2023/03/16 09:13:43;;;;;;;2.40;0.80;;;3.60;99.90;;;;;;5050833;28;20553;-49
2023/03/16 09:16:12;;;;;;;1.60;1.20;;;3.80;99.90;;;;;;5050783;28;20456;-50
2023/03/16 09:18:40;;;;;;;1.20;1.10;;;3.80;99.90;;;;;;5049516;28;20526;-49
2023/03/16 09:21:09;;;;;;;1.60;0.90;;;3.90;99.90;;;;;;5050916;28;20480;-52
2023/03/16 09:23:37;;;;;;;1.50;1.10;;;4.00;99.90;;;;;;5049851;28;20501;-49
2023/03/16 09:26:06;;;;;;;1.80;1.27;;;4.20;99.90;;;;;;5050805;28;20442;-50
2023/03/16 09:28:34;;;;;;;1.90;1.40;;;4.20;99.90;;;;;;5050020;28;20530;-50
2023/03/16 09:31:02;;;;;;;1.13;1.03;;;4.20;99.90;;;;;;5051539;28;20544;-50
2023/03/16 09:33:30;;;;;;;1.40;1.07;;;4.40;99.90;;;;;;5057239;28;20442;-49
2023/03/16 09:35:58;;;;;;;1.47;1.00;;;4.60;99.90;;;;;;5057338;28;20541;-51
2023/03/16 09:38:26;;;;;;;1.90;1.30;;;4.70;99.90;;;;;;5057007;28;20868;-49
2023/03/16 09:40:59;;;;;;;2.13;1.47;;;4.70;99.90;;;;;;5057115;28;20459;-49
2023/03/16 09:43:44;;;;;;;57.33;10.30;;;4.70;99.90;;;;;;5056910;28;20535;-50
2023/03/16 09:46:18;;;;;;;1.63;1.23;;;4.90;99.90;;;;;;5056894;28;20445;-50
2023/03/16 09:48:46;;;;;;;4.17;1.33;;;5.00;99.90;;;;;;5056861;28;20526;-49
2023/03/16 09:51:20;;;;;;;3.97;1.63;;;5.20;99.90;;;;;;5056078;28;20909;-51
2023/03/16 09:53:49;;;;;;;1.60;1.20;;;5.30;99.90;;;;;;5056808;28;20450;-50
2023/03/16 09:56:22;;;;;;;2.90;1.87;;;5.50;99.90;;;;;;5057108;28;20480;-50
2023/03/16 09:58:49;;;;;;;4.20;1.40;;;5.60;99.90;;;;;;5056850;28;20472;-49
2023/03/16 10:01:25;;;;;;;2.70;1.43;;;5.70;99.90;;;;;;5056607;28;20461;-49
2023/03/16 10:04:04;;;;;;;1.87;1.30;;;5.70;99.90;;;;;;5056991;28;21022;-49
2023/03/16 10:06:31;;;;;;;2.30;1.60;;;5.90;99.90;;;;;;5057238;28;20449;-53
2023/03/16 10:09:06;;;;;;;1.73;1.60;;;5.90;99.90;;;;;;5056991;28;20441;-52
2023/03/16 10:11:40;;;;;;;2.35;1.50;;;6.00;99.90;;;;;;5055685;28;20478;-53
2023/03/16 10:14:18;;;;;;;1.97;1.53;;;6.10;99.90;;;;;;5055291;28;20290;-52
2023/03/16 10:16:50;;;;;;;4.00;1.60;;;6.10;99.90;;;;;;5055776;28;20445;-52
2023/03/16 10:19:22;;;;;;;2.83;1.10;;;6.10;99.90;;;;;;5055741;28;20991;-52
2023/03/16 10:21:51;;;;;;;1.90;1.23;;;6.20;99.90;;;;;;5055908;28;20503;-52
2023/03/16 10:24:29;;;;;;;1.80;1.43;;;6.30;99.90;;;;;;5056063;28;20507;-54
2023/03/16 10:26:59;;;;;;;1.20;1.10;;;6.40;99.90;;;;;;5056739;28;20472;-52
2023/03/16 10:29:28;;;;;;;4.73;1.20;;;6.40;99.90;;;;;;5056594;28;20452;-51
2023/03/16 10:32:00;;;;;;;1.10;1.00;;;6.50;99.90;;;;;;5056716;28;20829;-53
2023/03/16 10:34:27;;;;;;;1.40;1.30;;;6.50;99.90;;;;;;5056837;28;20967;-52
2023/03/16 10:36:55;;;;;;;2.83;1.60;;;6.50;99.90;;;;;;5056929;28;20441;-52
2023/03/16 10:39:21;;;;;;;1.43;1.17;;;6.80;99.90;;;;;;5056441;28;20504;-52
2023/03/16 10:41:57;;;;;;;1.50;1.33;;;6.80;99.90;;;;;;5056460;28;20558;-51
2023/03/16 10:44:26;;;;;;;1.63;1.20;;;6.90;99.90;;;;;;5052757;28;20473;-51
2023/03/16 10:47:00;;;;;;;1.40;1.20;;;6.90;99.90;;;;;;5054140;28;20541;-52
2023/03/16 10:49:29;;;;;;;1.40;1.10;;;7.00;99.90;;;;;;5053515;28;20440;-53
2023/03/16 10:51:58;;;;;;;1.20;0.87;;;6.90;98.50;;;;;;5053656;28;20498;-52
2023/03/16 10:54:30;;;;;;;1.87;1.10;;;7.00;98.20;;;;;;5053316;28;20532;-52
2023/03/16 10:56:59;;;;;;;1.50;1.10;;;7.20;99.50;;;;;;5053036;28;20972;-52
2023/03/16 10:59:30;;;;;;;1.63;1.13;;;7.30;97.80;;;;;;5052818;28;20480;-52
2023/03/16 11:01:58;;;;;;;2.63;1.20;;;7.70;99.90;;;;;;5053265;28;20472;-52
2023/03/16 11:04:25;;;;;;;1.27;1.17;;;7.90;99.90;;;;;;5053535;28;20544;-52
2023/03/16 11:06:54;;;;;;;9.20;2.03;;;7.90;99.90;;;;;;5052920;28;20474;-52
2023/03/16 11:09:24;;;;;;;1.57;1.03;;;7.80;98.10;;;;;;5053010;28;20524;-52
2023/03/16 11:11:52;;;;;;;2.10;1.30;;;7.80;99.90;;;;;;5049535;28;20512;-53
2023/03/16 11:14:27;;;;;;;1.10;0.70;;;7.80;98.50;;;;;;5047565;28;20521;-52
2023/03/16 11:17:01;;;;;;;1.50;0.80;;;7.80;98.60;;;;;;5053205;28;20452;-52
2023/03/16 11:19:31;;;;;;;1.27;0.80;;;7.70;97.80;;;;;;5044777;28;20472;-52
2023/03/16 11:22:03;;;;;;;1.70;1.10;;;7.70;95.00;;;;;;5052184;28;20477;-52
2023/03/16 11:24:41;;;;;;;1.30;0.93;;;7.60;96.70;;;;;;5054324;28;20538;-53
2023/03/16 11:27:16;;;;;;;1.40;0.87;;;7.70;97.20;;;;;;5052248;28;20487;-52
2023/03/16 11:29:54;;;;;;;2.13;1.37;;;7.90;93.50;;;;;;5051129;28;20453;-52
2023/03/16 11:32:26;;;;;;;1.30;1.20;;;7.90;93.30;;;;;;5051723;28;20509;-52
2023/03/16 11:34:53;;;;;;;2.43;1.10;;;7.90;96.30;;;;;;5049358;28;20501;-53
2023/03/16 11:37:32;;;;;;;1.40;1.00;;;8.00;98.10;;;;;;5052842;28;20524;-53
2023/03/16 11:40:14;;;;;;;1.50;1.20;;;8.10;96.10;;;;;;5049782;28;20470;-52
2023/03/16 11:42:52;;;;;;;2.70;1.10;;;7.90;96.40;;;;;;5046367;28;20851;-50
2023/03/16 11:45:28;;;;;;;7.90;1.20;;;8.00;97.90;;;;;;5047821;28;20469;-50
2023/03/16 11:48:08;;;;;;;1.50;1.23;;;8.10;96.40;;;;;;5046984;28;20588;-52
2023/03/16 11:50:48;;;;;;;3.30;1.30;;;8.20;96.20;;;;;;5048026;28;20557;-51
2023/03/16 11:53:26;;;;;;;2.20;1.10;;;8.30;96.80;;;;;;5051575;28;20818;-51
2023/03/16 11:56:02;;;;;;;1.70;1.30;;;8.30;96.30;;;;;;5051579;28;20544;-51
2023/03/16 11:58:46;;;;;;;1.97;1.53;;;8.30;94.90;;;;;;5053100;28;20540;-51
2023/03/16 12:01:21;;;;;;;1.30;1.03;;;8.30;94.50;;;;;;5048323;28;20491;-52
2023/03/16 12:04:06;;;;;;;2.20;1.03;;;8.40;95.60;;;;;;5056277;28;20503;-50
2023/03/16 12:07:08;;;;;;;1.20;1.00;;;8.50;95.30;;;;;;5046054;28;21006;-53
2023/03/16 12:09:57;;;;;;;2.07;1.43;;;8.70;97.10;;;;;;5042573;28;20448;-53
2023/03/16 12:12:33;;;;;;;2.03;1.20;;;8.70;99.60;;;;;;5048923;28;20484;-53
2023/03/16 12:15:16;;;;;;;1.60;1.10;;;8.70;94.70;;;;;;5048384;28;20913;-53
2023/03/16 12:17:45;;;;;;;2.30;0.93;;;8.70;95.20;;;;;;5047361;28;20457;-52
2023/03/16 12:20:20;;;;;;;2.10;1.10;;;8.70;95.50;;;;;;5045057;28;20484;-54
2023/03/16 12:22:49;;;;;;;1.47;1.13;;;8.90;97.30;;;;;;5055866;28;20445;-52
2023/03/16 12:25:21;;;;;;;2.23;1.17;;;9.20;97.20;;;;;;5050736;28;20548;-53
2023/03/16 12:27:52;;;;;;;1.90;1.10;;;9.10;99.20;;;;;;5051320;28;20524;-52
2023/03/16 12:30:34;;;;;;;1.67;1.23;;;9.20;97.00;;;;;;5051026;28;20948;-51
2023/03/16 12:33:08;;;;;;;1.67;1.10;;;9.30;96.80;;;;;;5051430;28;20445;-51
2023/03/16 12:35:45;;;;;;;1.40;1.00;;;9.40;97.00;;;;;;5051780;28;20527;-51
2023/03/16 12:38:36;;;;;;;1.20;0.90;;;9.40;96.20;;;;;;5050446;28;20446;-51
2023/03/16 12:41:23;;;;;;;2.50;1.10;;;9.40;97.70;;;;;;5050533;28;20492;-52
2023/03/16 12:44:02;;;;;;;2.07;1.30;;;9.20;97.40;;;;;;5051221;28;20449;-52
2023/03/16 12:46:35;;;;;;;1.67;1.20;;;9.20;96.50;;;;;;5051328;28;20536;-52
2023/03/16 12:49:06;;;;;;;1.60;1.03;;;9.20;96.20;;;;;;5050969;28;20870;-51
2023/03/16 12:51:34;;;;;;;1.63;1.37;;;9.30;94.10;;;;;;5051005;28;21210;-50
2023/03/16 12:54:02;;;;;;;1.50;1.30;;;9.20;97.20;;;;;;5051149;28;20545;-51
2023/03/16 12:56:32;;;;;;;1.60;1.17;;;9.20;96.20;;;;;;5051074;28;20798;-52
2023/03/16 12:59:00;;;;;;;2.20;1.07;;;9.20;97.10;;;;;;5051183;28;20519;-51
2023/03/16 13:01:30;;;;;;;3.70;1.20;;;9.30;95.90;;;;;;5050356;28;20509;-52
2023/03/16 13:04:02;;;;;;;4.63;1.40;;;9.40;92.60;;;;;;5050905;28;20517;-52
2023/03/16 13:06:35;;;;;;;1.37;1.03;;;9.40;93.50;;;;;;5050055;28;20444;-52
2023/03/16 13:09:04;;;;;;;3.13;1.10;;;9.60;96.60;;;;;;5050658;28;20476;-53